createdAt,value
2019-03-20T00:02:17.390Z,14.27
2019-03-20T00:04:49.940Z,13.17
2019-03-20T00:07:17.343Z,15.37
2019-03-20T00:09:45.523Z,15.10
2019-03-20T00:12:13.745Z,12.83
2019-03-20T00:14:41.865Z,12.50
2019-03-20T00:17:09.945Z,13.53
2019-03-20T00:19:39.040Z,15.03
2019-03-20T00:22:08.248Z,15.23
2019-03-20T00:24:36.314Z,12.23
2019-03-20T00:27:04.692Z,13.57
2019-03-20T00:29:32.867Z,13.70
2019-03-20T00:32:00.929Z,10.80
2019-03-20T00:34:31.097Z,17.12
2019-03-20T00:36:59.363Z,13.37
2019-03-20T00:39:27.424Z,13.03
2019-03-20T00:41:55.544Z,13.67
2019-03-20T00:44:23.700Z,10.43
2019-03-20T00:46:51.817Z,10.03
2019-03-20T00:49:21.889Z,12.27
2019-03-20T00:51:51.013Z,11.57
2019-03-20T00:54:19.093Z,12.17
2019-03-20T00:56:48.478Z,14.07
2019-03-20T00:59:18.373Z,10.17
2019-03-20T01:01:46.565Z,14.97
2019-03-20T01:04:16.890Z,9.53
2019-03-20T01:06:44.985Z,10.53
2019-03-20T01:09:14.195Z,13.63
2019-03-20T01:11:43.018Z,11.77
2019-03-20T01:14:11.123Z,10.67
2019-03-20T01:16:39.226Z,13.83
2019-03-20T01:19:07.424Z,8.93
2019-03-20T01:21:35.498Z,11.50
2019-03-20T01:24:03.652Z,15.50
2019-03-20T01:26:31.767Z,10.13
2019-03-20T01:28:59.960Z,10.53
2019-03-20T01:31:29.951Z,10.53
2019-03-20T01:33:58.461Z,9.47
2019-03-20T01:36:27.733Z,9.87
2019-03-20T01:38:56.915Z,8.63
2019-03-20T01:41:25.294Z,10.80
2019-03-20T01:43:53.523Z,10.63
2019-03-20T01:46:21.846Z,8.70
2019-03-20T01:48:50.022Z,11.57
2019-03-20T01:51:19.514Z,9.73
2019-03-20T01:53:48.782Z,12.20
2019-03-20T01:56:17.243Z,11.37
2019-03-20T01:58:45.332Z,10.20
2019-03-20T02:01:13.393Z,10.87
2019-03-20T02:03:41.518Z,9.27
2019-03-20T02:06:09.709Z,14.30
2019-03-20T02:08:37.828Z,11.73
2019-03-20T02:11:06.245Z,14.20
2019-03-20T02:13:34.494Z,10.07
2019-03-20T02:16:02.657Z,11.40
2019-03-20T02:18:30.966Z,13.57
2019-03-20T02:21:00.214Z,10.47
2019-03-20T02:23:28.297Z,11.83
2019-03-20T02:25:56.468Z,8.40
2019-03-20T02:28:26.423Z,17.13
2019-03-20T02:30:56.494Z,11.83
2019-03-20T02:33:24.686Z,11.13
2019-03-20T02:35:52.749Z,11.73
2019-03-20T02:38:20.823Z,10.57
2019-03-20T02:40:49.162Z,10.20
2019-03-20T02:43:18.373Z,11.13
2019-03-20T02:45:46.507Z,8.93
2019-03-20T02:48:14.829Z,9.40
2019-03-20T02:50:43.254Z,10.33
2019-03-20T02:53:14.763Z,9.07
2019-03-20T02:55:42.750Z,8.77
2019-03-20T02:58:10.913Z,12.77
2019-03-20T03:00:40.121Z,11.47
2019-03-20T03:03:10.117Z,10.50
2019-03-20T03:05:38.200Z,11.20
2019-03-20T03:08:06.492Z,12.47
2019-03-20T03:10:34.606Z,11.37
2019-03-20T03:13:02.677Z,7.97
2019-03-20T03:15:30.769Z,11.17
2019-03-20T03:17:59.010Z,10.63
2019-03-20T03:20:27.069Z,8.10
2019-03-20T03:22:55.141Z,8.90
2019-03-20T03:25:24.854Z,10.57
2019-03-20T03:27:52.920Z,9.67
2019-03-20T03:30:20.967Z,7.90
2019-03-20T03:32:49.175Z,8.67
2019-03-20T03:35:19.413Z,7.23
2019-03-20T03:37:46.959Z,12.07
2019-03-20T03:40:15.164Z,11.20
2019-03-20T03:42:43.232Z,9.90
2019-03-20T03:45:11.701Z,7.50
2019-03-20T03:47:39.938Z,11.57
2019-03-20T03:50:08.214Z,7.53
2019-03-20T03:52:36.277Z,11.03
2019-03-20T03:55:04.981Z,9.00
2019-03-20T03:57:34.565Z,8.37
2019-03-20T04:00:04.568Z,11.77
2019-03-20T04:02:33.069Z,11.10
2019-03-20T04:05:01.234Z,12.10
2019-03-20T04:07:30.033Z,10.13
2019-03-20T04:09:58.808Z,9.63
2019-03-20T04:12:28.760Z,11.47
2019-03-20T04:14:57.025Z,9.30
2019-03-20T04:17:26.337Z,11.47
2019-03-20T04:19:55.900Z,10.53
2019-03-20T04:22:24.036Z,13.40
2019-03-20T04:24:52.520Z,11.20
2019-03-20T04:27:20.798Z,12.10
2019-03-20T04:29:49.077Z,10.60
2019-03-20T04:32:17.453Z,9.80
2019-03-20T04:34:45.535Z,11.90
2019-03-20T04:37:14.767Z,10.07
2019-03-20T04:39:43.345Z,9.17
2019-03-20T04:42:13.214Z,10.67
2019-03-20T04:44:41.521Z,10.13
2019-03-20T04:47:11.260Z,10.90
2019-03-20T04:49:39.452Z,9.50
2019-03-20T04:52:08.718Z,14.43
2019-03-20T04:54:36.849Z,13.60
2019-03-20T04:57:04.990Z,14.23
2019-03-20T04:59:34.925Z,9.53
2019-03-20T05:02:03.203Z,15.60
2019-03-20T05:04:33.198Z,11.17
2019-03-20T05:07:02.534Z,13.40
2019-03-20T05:09:30.927Z,10.93
2019-03-20T05:12:00.841Z,13.27
2019-03-20T05:14:28.897Z,13.87
2019-03-20T05:16:57.452Z,11.30
2019-03-20T05:19:25.715Z,14.80
2019-03-20T05:21:53.757Z,10.77
2019-03-20T05:24:21.868Z,16.27
2019-03-20T05:26:49.971Z,13.63
2019-03-20T05:29:19.884Z,16.30
2019-03-20T05:31:49.568Z,17.47
2019-03-20T05:34:17.637Z,15.17
2019-03-20T05:36:46.888Z,18.30
2019-03-20T05:39:15.956Z,16.10
2019-03-20T05:41:45.351Z,16.60
2019-03-20T05:44:13.583Z,19.17
2019-03-20T05:46:41.689Z,17.67
2019-03-20T05:49:09.739Z,16.97
2019-03-20T05:51:37.809Z,16.13
2019-03-20T05:54:06.133Z,17.63
2019-03-20T05:56:34.187Z,16.77
2019-03-20T05:59:02.342Z,17.70
2019-03-20T06:01:30.423Z,19.50
2019-03-20T06:03:58.482Z,16.63
2019-03-20T06:06:26.519Z,16.37
2019-03-20T06:08:54.590Z,17.93
2019-03-20T06:11:28.753Z,19.33
2019-03-20T06:13:57.100Z,17.17
2019-03-20T06:16:25.384Z,18.97
2019-03-20T06:18:53.405Z,18.07
2019-03-20T06:21:21.417Z,17.77
2019-03-20T06:23:50.620Z,21.57
2019-03-20T06:26:18.661Z,23.77
2019-03-20T06:28:48.656Z,21.53
2019-03-20T06:31:18.924Z,21.73
2019-03-20T06:33:47.065Z,21.00
2019-03-20T06:36:15.078Z,20.87
2019-03-20T06:38:43.502Z,24.90
2019-03-20T06:41:11.539Z,24.03
2019-03-20T06:43:39.578Z,25.80
2019-03-20T06:46:07.737Z,27.03
2019-03-20T06:48:35.803Z,27.63
2019-03-20T06:51:03.824Z,21.57
2019-03-20T06:53:31.926Z,23.87
2019-03-20T06:56:00.309Z,25.40
2019-03-20T06:58:29.839Z,26.00
2019-03-20T07:01:12.779Z,35.23
2019-03-20T07:03:56.972Z,28.97
2019-03-20T07:06:45.454Z,30.53
2019-03-20T07:09:19.681Z,26.77
2019-03-20T07:11:48.911Z,29.63
2019-03-20T07:14:19.034Z,28.77
2019-03-20T07:16:47.494Z,26.33
2019-03-20T07:19:15.690Z,28.97
2019-03-20T07:21:45.292Z,29.67
2019-03-20T07:24:13.358Z,37.63
2019-03-20T07:26:41.506Z,34.67
2019-03-20T07:29:09.844Z,39.93
2019-03-20T07:31:37.998Z,32.63
2019-03-20T07:34:06.181Z,34.67
2019-03-20T07:36:34.728Z,36.43
2019-03-20T07:39:04.537Z,34.80
2019-03-20T07:41:33.696Z,32.20
2019-03-20T07:44:02.124Z,35.43
2019-03-20T07:46:30.679Z,37.58
2019-03-20T07:49:00.242Z,35.50
2019-03-20T07:51:30.292Z,33.43
2019-03-20T07:53:58.397Z,36.40
2019-03-20T07:56:26.471Z,37.53
2019-03-20T07:58:54.713Z,34.60
2019-03-20T08:01:24.022Z,32.57
2019-03-20T08:03:52.084Z,36.33
2019-03-20T08:06:20.581Z,32.30
2019-03-20T08:08:48.829Z,39.37
2019-03-20T08:11:16.886Z,37.93
2019-03-20T08:13:45.159Z,35.20
2019-03-20T08:16:13.738Z,29.63
2019-03-20T08:18:43.215Z,30.70
2019-03-20T08:21:11.585Z,31.53
2019-03-20T08:23:39.758Z,32.87
2019-03-20T08:26:09.199Z,35.53
2019-03-20T08:28:37.659Z,34.27
2019-03-20T08:31:05.738Z,30.87
2019-03-20T08:33:35.001Z,33.97
2019-03-20T08:36:04.998Z,33.57
2019-03-20T08:38:35.206Z,32.30
2019-03-20T08:41:03.595Z,29.60
2019-03-20T08:43:31.846Z,29.80
2019-03-20T08:46:01.121Z,33.70
2019-03-20T08:48:29.239Z,32.70
2019-03-20T08:50:57.708Z,29.63
2019-03-20T08:53:25.909Z,29.20
2019-03-20T08:55:54.098Z,35.20
2019-03-20T08:58:24.026Z,29.87
2019-03-20T09:00:52.268Z,30.33
2019-03-20T09:03:21.375Z,29.87
2019-03-20T09:05:49.745Z,26.60
2019-03-20T09:08:28.488Z,29.33
2019-03-20T09:10:48.676Z,30.00
2019-03-20T09:13:18.885Z,28.23
2019-03-20T09:15:46.955Z,29.50
2019-03-20T09:18:15.017Z,29.23
2019-03-20T09:20:43.257Z,31.50
2019-03-20T09:23:12.329Z,27.13
2019-03-20T09:25:40.628Z,27.93
2019-03-20T09:28:08.871Z,27.30
2019-03-20T09:30:37.107Z,29.93
2019-03-20T09:33:05.357Z,28.43
2019-03-20T09:35:33.738Z,27.10
2019-03-20T09:38:01.910Z,26.17
2019-03-20T09:40:30.211Z,29.37
2019-03-20T09:42:58.478Z,30.93
2019-03-20T09:45:26.565Z,27.00
2019-03-20T09:47:55.710Z,27.90
2019-03-20T09:50:24.170Z,27.90
2019-03-20T09:52:53.358Z,28.73
2019-03-20T09:55:22.861Z,27.00
2019-03-20T09:57:52.464Z,27.57
2019-03-20T10:00:21.475Z,27.33
2019-03-20T10:02:49.562Z,29.83
2019-03-20T10:05:18.001Z,28.93
2019-03-20T10:07:46.162Z,27.37
2019-03-20T10:10:16.151Z,27.10
2019-03-20T10:12:44.381Z,29.63
2019-03-20T10:15:12.957Z,24.97
2019-03-20T10:17:41.158Z,24.97
2019-03-20T10:20:10.292Z,29.40
2019-03-20T10:22:39.058Z,22.87
2019-03-20T10:25:07.695Z,22.97
2019-03-20T10:27:36.025Z,31.47
2019-03-20T10:30:05.435Z,28.07
2019-03-20T10:32:35.365Z,25.90
2019-03-20T10:35:03.944Z,27.33
2019-03-20T10:37:32.212Z,27.70
2019-03-20T10:40:04.277Z,24.90
2019-03-20T10:42:33.584Z,25.87
2019-03-20T10:45:01.767Z,27.00
2019-03-20T10:47:29.926Z,31.67
2019-03-20T10:49:58.158Z,28.53
2019-03-20T10:52:26.230Z,33.33
2019-03-20T10:54:54.345Z,30.40
2019-03-20T10:57:22.501Z,26.17
2019-03-20T10:59:50.661Z,35.30
2019-03-20T11:02:18.700Z,33.97
2019-03-20T11:04:48.077Z,31.63
2019-03-20T11:07:16.204Z,27.97
2019-03-20T11:09:45.761Z,28.37
2019-03-20T11:12:14.077Z,30.33
2019-03-20T11:14:42.367Z,30.80
2019-03-20T11:17:10.620Z,29.53
2019-03-20T11:19:38.749Z,28.73
2019-03-20T11:22:18.044Z,28.57
2019-03-20T11:24:37.139Z,32.30
2019-03-20T11:27:05.597Z,27.57
2019-03-20T11:29:34.830Z,31.40
2019-03-20T11:32:03.005Z,35.23
2019-03-20T11:34:31.307Z,30.43
2019-03-20T11:37:00.786Z,26.67
2019-03-20T11:39:30.011Z,32.47
2019-03-20T11:41:58.433Z,36.37
2019-03-20T11:44:27.669Z,30.07
2019-03-20T11:46:55.946Z,29.57
2019-03-20T11:49:24.526Z,33.07
2019-03-20T11:51:52.676Z,29.97
2019-03-20T11:54:20.749Z,30.07
2019-03-20T11:56:48.968Z,31.67
2019-03-20T11:59:17.073Z,30.07
2019-03-20T12:01:45.220Z,30.90
2019-03-20T12:04:13.466Z,29.07
2019-03-20T12:06:42.710Z,32.57
2019-03-20T12:09:10.900Z,30.63
2019-03-20T12:11:45.694Z,33.30
2019-03-20T12:14:10.768Z,32.30
2019-03-20T12:16:38.937Z,31.67
2019-03-20T12:19:07.031Z,32.00
2019-03-20T12:21:35.897Z,30.37
2019-03-20T12:24:04.069Z,35.13
2019-03-20T12:26:32.470Z,33.53
2019-03-20T12:29:01.239Z,32.80
2019-03-20T12:31:30.826Z,36.37
2019-03-20T12:33:59.057Z,30.63
2019-03-20T12:36:27.145Z,39.47
2019-03-20T12:38:55.249Z,35.43
2019-03-20T12:41:23.397Z,39.07
2019-03-20T12:43:51.733Z,36.27
2019-03-20T12:46:19.906Z,36.90
2019-03-20T12:48:48.125Z,36.83
2019-03-20T12:51:16.233Z,39.20
2019-03-20T12:53:44.346Z,44.03
2019-03-20T12:56:13.747Z,41.83
2019-03-20T12:58:43.180Z,37.70
2019-03-20T13:01:11.274Z,40.17
2019-03-20T13:03:39.596Z,33.10
2019-03-20T13:06:07.717Z,35.57
2019-03-20T13:08:35.798Z,35.17
2019-03-20T13:11:04.073Z,32.50
2019-03-20T13:13:32.156Z,36.37
2019-03-20T13:16:00.232Z,34.97
2019-03-20T13:18:28.567Z,35.07
2019-03-20T13:20:56.706Z,32.97
2019-03-20T13:23:25.975Z,39.57
2019-03-20T13:25:54.206Z,37.47
2019-03-20T13:28:23.743Z,34.00
2019-03-20T13:30:57.372Z,37.50
2019-03-20T13:33:26.373Z,36.33
2019-03-20T13:35:56.379Z,38.67
2019-03-20T13:38:25.580Z,35.60
2019-03-20T13:40:53.933Z,34.33
2019-03-20T13:43:22.004Z,31.50
2019-03-20T13:45:50.078Z,35.20
2019-03-20T13:48:18.294Z,34.63
2019-03-20T13:50:46.379Z,39.77
2019-03-20T13:53:15.517Z,40.47
2019-03-20T13:55:43.998Z,35.07
2019-03-20T13:58:12.139Z,38.13
2019-03-20T14:00:40.313Z,40.73
2019-03-20T14:03:08.634Z,35.97
2019-03-20T14:05:37.793Z,37.33
2019-03-20T14:08:07.093Z,33.63
2019-03-20T14:10:49.442Z,34.60
2019-03-20T14:13:05.306Z,36.60
2019-03-20T14:15:33.427Z,36.77
2019-03-20T14:18:01.695Z,35.73
2019-03-20T14:20:29.831Z,38.07
2019-03-20T14:22:58.050Z,34.83
2019-03-20T14:25:26.413Z,39.33
2019-03-20T14:27:54.671Z,35.93
2019-03-20T14:30:24.213Z,44.27
2019-03-20T14:32:52.660Z,37.53
2019-03-20T14:35:20.821Z,36.63
2019-03-20T14:37:48.994Z,37.07
2019-03-20T14:40:17.798Z,40.53
2019-03-20T14:42:45.850Z,38.77
2019-03-20T14:45:14.226Z,37.97
2019-03-20T14:47:42.516Z,39.13
2019-03-20T14:50:12.039Z,41.53
2019-03-20T14:52:40.128Z,40.67
2019-03-20T14:55:10.716Z,38.00
2019-03-20T14:57:38.800Z,37.57
2019-03-20T15:00:07.680Z,35.40
2019-03-20T15:02:35.873Z,42.93
2019-03-20T15:05:04.572Z,43.33
2019-03-20T15:07:32.633Z,41.23
2019-03-20T15:10:01.782Z,38.07
2019-03-20T15:12:29.866Z,43.30
2019-03-20T15:14:57.936Z,40.83
2019-03-20T15:17:26.524Z,42.73
2019-03-20T15:19:56.443Z,39.13
2019-03-20T15:22:25.502Z,41.73
2019-03-20T15:24:53.908Z,45.30
2019-03-20T15:27:23.798Z,44.13
2019-03-20T15:29:51.858Z,41.27
2019-03-20T15:32:22.011Z,41.03
2019-03-20T15:34:50.087Z,44.37
2019-03-20T15:37:18.169Z,49.60
2019-03-20T15:39:46.568Z,44.57
2019-03-20T15:42:14.766Z,43.90
2019-03-20T15:44:43.042Z,43.10
2019-03-20T15:47:11.314Z,41.93
2019-03-20T15:49:39.498Z,42.07
2019-03-20T15:52:09.441Z,41.03
2019-03-20T15:54:37.903Z,40.30
2019-03-20T15:57:07.818Z,40.20
2019-03-20T15:59:36.002Z,40.10
2019-03-20T16:02:06.130Z,41.40
2019-03-20T16:04:34.318Z,39.60
2019-03-20T16:07:02.381Z,37.37
2019-03-20T16:09:30.594Z,41.17
2019-03-20T16:11:58.720Z,39.53
2019-03-20T16:14:27.933Z,42.87
2019-03-20T16:16:56.253Z,37.53
2019-03-20T16:19:24.316Z,39.63
2019-03-20T16:21:53.498Z,44.47
2019-03-20T16:24:21.869Z,38.80
2019-03-20T16:26:49.918Z,43.80
2019-03-20T16:29:17.968Z,40.50
2019-03-20T16:31:46.078Z,41.00
2019-03-20T16:34:14.464Z,37.70
2019-03-20T16:36:45.868Z,40.30
2019-03-20T16:39:14.114Z,43.20
2019-03-20T16:41:42.210Z,41.60
2019-03-20T16:44:10.334Z,46.27
2019-03-20T16:46:38.505Z,40.20
2019-03-20T16:49:06.553Z,40.17
2019-03-20T16:51:34.602Z,43.13
2019-03-20T16:54:02.799Z,44.97
2019-03-20T16:56:31.442Z,45.40
2019-03-20T16:58:59.537Z,43.03
2019-03-20T17:01:27.813Z,45.13
2019-03-20T17:03:55.901Z,38.43
2019-03-20T17:06:25.204Z,48.57
2019-03-20T17:08:54.605Z,44.47
2019-03-20T17:11:30.287Z,46.90
2019-03-20T17:13:54.560Z,44.73
2019-03-20T17:16:23.037Z,46.60
2019-03-20T17:18:53.040Z,42.80
2019-03-20T17:21:22.270Z,49.43
2019-03-20T17:23:50.565Z,44.77
2019-03-20T17:26:18.713Z,43.53
2019-03-20T17:28:47.018Z,43.40
2019-03-20T17:31:15.373Z,47.07
2019-03-20T17:33:43.553Z,43.23
2019-03-20T17:36:11.863Z,45.27
2019-03-20T17:38:40.212Z,44.50
2019-03-20T17:41:09.422Z,46.17
2019-03-20T17:43:37.511Z,42.73
2019-03-20T17:46:05.751Z,45.53
2019-03-20T17:48:33.866Z,47.83
2019-03-20T17:51:02.192Z,46.77
2019-03-20T17:53:30.622Z,45.23
2019-03-20T17:56:00.558Z,41.90
2019-03-20T17:58:28.720Z,40.40
2019-03-20T18:00:57.330Z,43.20
2019-03-20T18:03:25.489Z,46.30
2019-03-20T18:05:53.658Z,41.03
2019-03-20T18:08:21.928Z,41.27
2019-03-20T18:10:50.127Z,42.37
2019-03-20T18:13:18.301Z,45.30
2019-03-20T18:15:46.611Z,43.57
2019-03-20T18:18:14.791Z,44.90
2019-03-20T18:20:42.973Z,46.67
2019-03-20T18:23:11.436Z,49.97
2019-03-20T18:25:40.950Z,46.07
2019-03-20T18:28:10.260Z,50.93
2019-03-20T18:30:38.743Z,41.13
2019-03-20T18:33:06.812Z,43.33
2019-03-20T18:35:34.992Z,43.60
2019-03-20T18:38:03.289Z,42.73
2019-03-20T18:40:32.224Z,44.00
2019-03-20T18:43:00.439Z,45.50
2019-03-20T18:45:29.657Z,43.30
2019-03-20T18:47:57.939Z,44.77
2019-03-20T18:50:26.133Z,43.17
2019-03-20T18:52:56.121Z,46.60
2019-03-20T18:55:24.396Z,44.07
2019-03-20T18:57:52.570Z,41.77
2019-03-20T19:00:21.663Z,45.73
2019-03-20T19:02:49.911Z,40.33
2019-03-20T19:05:37.303Z,48.60
2019-03-20T19:08:05.761Z,46.73
2019-03-20T19:10:34.142Z,43.63
2019-03-20T19:13:03.711Z,46.73
2019-03-20T19:15:31.828Z,44.37
2019-03-20T19:17:59.974Z,45.03
2019-03-20T19:20:29.393Z,45.10
2019-03-20T19:22:57.615Z,48.57
2019-03-20T19:25:25.756Z,44.60
2019-03-20T19:27:54.012Z,48.63
2019-03-20T19:30:22.249Z,45.00
2019-03-20T19:32:50.396Z,43.60
2019-03-20T19:35:20.525Z,45.17
2019-03-20T19:37:48.625Z,46.07
2019-03-20T19:40:16.789Z,43.43
2019-03-20T19:42:45.516Z,46.13
2019-03-20T19:45:13.936Z,43.50
2019-03-20T19:47:42.258Z,46.77
2019-03-20T19:50:11.269Z,43.90
2019-03-20T19:52:39.526Z,45.30
2019-03-20T19:55:08.845Z,48.47
2019-03-20T19:57:37.197Z,51.57
2019-03-20T20:00:05.577Z,46.43
2019-03-20T20:02:33.777Z,48.27
2019-03-20T20:05:02.030Z,47.70
2019-03-20T20:07:31.249Z,44.17
2019-03-20T20:10:01.163Z,47.73
2019-03-20T20:12:31.627Z,47.30
2019-03-20T20:14:59.779Z,48.63
2019-03-20T20:17:27.966Z,49.13
2019-03-20T20:19:56.422Z,47.10
2019-03-20T20:22:24.586Z,49.73
2019-03-20T20:24:52.641Z,48.00
2019-03-20T20:27:21.941Z,49.77
2019-03-20T20:29:50.063Z,48.70
2019-03-20T20:32:18.166Z,48.40
2019-03-20T20:34:46.286Z,45.73
2019-03-20T20:37:16.196Z,50.83
2019-03-20T20:39:44.246Z,55.63
2019-03-20T20:42:12.537Z,51.43
2019-03-20T20:44:42.414Z,52.77
2019-03-20T20:47:11.635Z,51.17
2019-03-20T20:49:39.897Z,49.77
2019-03-20T20:52:19.025Z,52.97
2019-03-20T20:54:38.780Z,51.93
2019-03-20T20:57:08.947Z,48.40
2019-03-20T20:59:36.997Z,49.77
2019-03-20T21:02:05.209Z,47.03
2019-03-20T21:04:33.474Z,48.33
2019-03-20T21:07:01.937Z,51.33
2019-03-20T21:09:33.578Z,48.60
2019-03-20T21:12:02.373Z,54.60
2019-03-20T21:14:30.584Z,43.77
2019-03-20T21:16:58.987Z,49.20
2019-03-20T21:19:34.925Z,41.10
2019-03-20T21:22:22.099Z,48.33
2019-03-20T21:24:50.662Z,46.47
2019-03-20T21:27:40.584Z,47.10
2019-03-20T21:30:17.297Z,45.93
2019-03-20T21:32:45.806Z,43.67
2019-03-20T21:35:43.926Z,44.17
2019-03-20T21:38:12.522Z,42.70
2019-03-20T21:41:03.870Z,44.33
2019-03-20T21:43:56.978Z,43.80
2019-03-20T21:46:43.350Z,44.90
2019-03-20T21:49:11.837Z,43.40
2019-03-20T21:51:40.234Z,41.93
2019-03-20T21:54:31.331Z,41.87
2019-03-20T21:57:08.461Z,47.43
2019-03-20T21:59:49.680Z,44.90
2019-03-20T22:02:27.405Z,44.47
2019-03-20T22:04:58.546Z,50.40
2019-03-20T22:07:27.438Z,47.77
2019-03-20T22:10:17.994Z,50.57
2019-03-20T22:13:04.328Z,47.40
2019-03-20T22:16:00.985Z,51.63
2019-03-20T22:18:48.918Z,51.33
2019-03-20T22:21:36.173Z,55.03
2019-03-20T22:24:37.547Z,53.17
2019-03-20T22:27:22.993Z,52.17
2019-03-20T22:29:53.047Z,50.97
2019-03-20T22:32:40.565Z,54.63
2019-03-20T22:35:21.365Z,56.17
2019-03-20T22:37:49.797Z,55.57
2019-03-20T22:40:37.353Z,49.93
2019-03-20T22:43:09.277Z,52.43
2019-03-20T22:45:59.422Z,47.20
2019-03-20T22:49:02.311Z,51.97
2019-03-20T22:51:58.380Z,54.33
2019-03-20T22:54:51.601Z,51.07
2019-03-20T22:57:26.141Z,52.17
2019-03-20T22:59:54.597Z,48.83
2019-03-20T23:02:29.733Z,49.87
2019-03-20T23:04:59.051Z,48.30
2019-03-20T23:07:27.493Z,56.10
2019-03-20T23:09:58.072Z,60.30
2019-03-20T23:12:28.156Z,53.70
2019-03-20T23:14:56.636Z,53.97
2019-03-20T23:17:26.576Z,56.63
2019-03-20T23:19:55.524Z,58.30
2019-03-20T23:22:23.944Z,62.80
2019-03-20T23:24:52.442Z,58.00
2019-03-20T23:27:30.724Z,56.93
2019-03-20T23:29:59.221Z,55.93
2019-03-20T23:32:27.612Z,56.23
2019-03-20T23:34:56.185Z,58.63
2019-03-20T23:37:24.572Z,61.87
2019-03-20T23:39:52.924Z,68.07
2019-03-20T23:42:23.585Z,62.37
2019-03-20T23:44:51.916Z,69.20
2019-03-20T23:47:23.938Z,68.03
2019-03-20T23:49:52.772Z,65.57
2019-03-20T23:52:21.120Z,63.60
2019-03-20T23:54:50.857Z,75.10
2019-03-20T23:57:19.512Z,67.87
2019-03-20T23:59:48.127Z,78.87
